createdAt,value
2024-01-06T00:03:14.869Z,16.00
2024-01-06T00:08:17.821Z,15.20
2024-01-06T00:13:21.986Z,16.00
2024-01-06T00:18:25.100Z,15.20
2024-01-06T00:23:28.038Z,15.00
2024-01-06T00:28:32.223Z,15.00
2024-01-06T00:33:35.206Z,14.20
2024-01-06T00:38:38.277Z,15.00
2024-01-06T00:43:42.805Z,15.00
2024-01-06T00:48:45.731Z,15.20
2024-01-06T00:53:48.780Z,14.60
2024-01-06T00:58:53.109Z,13.40
2024-01-06T01:03:55.979Z,15.20
2024-01-06T01:08:58.876Z,13.40
2024-01-06T01:14:03.096Z,14.00
2024-01-06T01:19:06.077Z,14.80
2024-01-06T01:24:08.979Z,12.40
2024-01-06T01:29:13.301Z,14.00
2024-01-06T01:34:16.402Z,12.80
2024-01-06T01:39:19.511Z,13.80
2024-01-06T01:44:23.764Z,12.40
2024-01-06T01:49:27.715Z,12.40
2024-01-06T01:54:30.771Z,12.80
2024-01-06T01:59:35.934Z,11.75
2024-01-06T02:04:38.863Z,12.00
2024-01-06T02:09:42.072Z,11.60
2024-01-06T02:14:47.430Z,11.00
2024-01-06T02:19:50.458Z,12.20
2024-01-06T02:24:55.514Z,12.80
2024-01-06T02:29:58.436Z,11.00
2024-01-06T02:35:01.209Z,11.25
2024-01-06T02:40:06.438Z,10.25
2024-01-06T02:45:10.506Z,11.25
2024-01-06T02:50:13.603Z,11.00
2024-01-06T02:55:18.169Z,11.00
2024-01-06T03:00:21.185Z,11.00
2024-01-06T03:05:24.128Z,10.00
2024-01-06T03:10:28.486Z,9.75
2024-01-06T03:15:31.375Z,9.75
2024-01-06T03:20:34.222Z,10.75
2024-01-06T03:25:38.641Z,10.50
2024-01-06T03:30:41.675Z,9.50
2024-01-06T03:35:44.509Z,9.50
2024-01-06T03:40:48.665Z,11.00
2024-01-06T03:45:51.607Z,9.00
2024-01-06T03:50:54.458Z,9.75
2024-01-06T03:55:58.631Z,10.75
2024-01-06T04:01:01.627Z,10.00
2024-01-06T04:06:05.108Z,11.00
2024-01-06T04:11:09.391Z,10.00
2024-01-06T04:16:12.308Z,10.25
2024-01-06T04:21:15.190Z,9.50
2024-01-06T04:26:19.422Z,9.25
2024-01-06T04:31:22.364Z,11.00
2024-01-06T04:36:25.235Z,8.00
2024-01-06T04:41:29.466Z,8.50
2024-01-06T04:46:32.876Z,8.25
2024-01-06T04:51:35.712Z,8.25
2024-01-06T04:56:40.558Z,9.25
2024-01-06T05:01:43.580Z,7.67
2024-01-06T05:06:46.458Z,7.00
2024-01-06T05:11:50.712Z,8.75
2024-01-06T05:16:53.525Z,7.50
2024-01-06T05:21:56.530Z,8.50
2024-01-06T05:27:00.798Z,8.00
2024-01-06T05:32:03.570Z,8.00
2024-01-06T05:37:06.372Z,9.00
2024-01-06T05:42:13.239Z,6.75
2024-01-06T05:47:16.248Z,7.00
2024-01-06T05:52:19.096Z,7.25
2024-01-06T05:57:23.315Z,7.75
2024-01-06T06:02:26.117Z,7.25
2024-01-06T06:07:29.020Z,7.00
2024-01-06T06:12:33.264Z,6.75
2024-01-06T06:17:36.546Z,8.25
2024-01-06T06:22:39.403Z,6.75
2024-01-06T06:27:43.645Z,8.25
2024-01-06T06:32:47.386Z,6.00
2024-01-06T06:37:50.629Z,6.00
2024-01-06T06:42:54.807Z,6.75
2024-01-06T06:47:57.657Z,6.25
2024-01-06T06:53:01.959Z,6.00
2024-01-06T06:58:06.418Z,7.25
2024-01-06T07:03:09.293Z,7.50
2024-01-06T07:08:12.115Z,6.00
2024-01-06T07:13:16.467Z,6.25
2024-01-06T07:18:20.369Z,7.00
2024-01-06T07:23:23.391Z,6.00
2024-01-06T07:28:28.210Z,6.25
2024-01-06T07:33:31.127Z,7.00
2024-01-06T07:38:33.974Z,5.75
2024-01-06T07:43:38.140Z,6.75
2024-01-06T07:48:41.289Z,6.00
2024-01-06T07:53:44.373Z,6.75
2024-01-06T07:58:48.541Z,5.00
2024-01-06T08:03:51.477Z,12.50
2024-01-06T08:08:54.496Z,11.50
2024-01-06T08:13:58.775Z,12.00
2024-01-06T08:19:01.933Z,10.50
2024-01-06T08:24:05.664Z,9.25
2024-01-06T08:29:09.936Z,8.00
2024-01-06T08:34:13.062Z,7.00
2024-01-06T08:39:16.113Z,7.25
2024-01-06T08:44:20.277Z,6.75
2024-01-06T08:49:23.505Z,5.75
2024-01-06T08:54:26.914Z,7.00
2024-01-06T08:59:31.253Z,5.00
2024-01-06T09:04:34.240Z,5.00
2024-01-06T09:09:37.232Z,5.00
2024-01-06T09:14:41.845Z,5.00
2024-01-06T09:19:44.773Z,6.00
2024-01-06T09:24:47.794Z,5.00
2024-01-06T09:29:52.163Z,4.00
2024-01-06T09:34:55.708Z,5.50
2024-01-06T09:39:58.645Z,4.00
2024-01-06T09:45:02.958Z,5.00
2024-01-06T09:50:10.806Z,5.00
2024-01-06T09:55:14.108Z,5.00
2024-01-06T10:00:21.193Z,4.00
2024-01-06T10:05:24.485Z,3.00
2024-01-06T10:10:27.434Z,4.25
2024-01-06T10:15:31.712Z,4.25
2024-01-06T10:20:34.707Z,5.00
2024-01-06T10:25:37.978Z,3.50
2024-01-06T10:30:42.212Z,3.75
2024-01-06T10:35:45.468Z,4.00
2024-01-06T10:40:59.630Z,4.00
2024-01-06T10:46:06.169Z,4.50
2024-01-06T10:51:09.475Z,3.25
2024-01-06T10:56:12.718Z,4.00
2024-01-06T11:01:23.255Z,4.25
2024-01-06T11:06:30.196Z,3.00
2024-01-06T11:11:34.439Z,3.67
2024-01-06T11:16:39.873Z,4.00
2024-01-06T11:21:42.736Z,4.25
2024-01-06T11:26:46.981Z,3.75
2024-01-06T11:32:21.980Z,4.00
2024-01-06T11:37:27.460Z,4.00
2024-01-06T11:42:35.745Z,3.00
2024-01-06T11:47:42.252Z,3.00
2024-01-06T11:52:45.233Z,4.00
2024-01-06T11:57:50.615Z,13.25
2024-01-06T12:02:59.634Z,14.60
2024-01-06T12:08:06.144Z,14.40
2024-01-06T12:13:10.824Z,9.00
2024-01-06T12:18:17.168Z,9.00
2024-01-06T12:23:28.830Z,8.00
2024-01-06T12:28:32.000Z,8.00
2024-01-06T12:33:38.400Z,7.25
2024-01-06T12:38:44.840Z,8.25
2024-01-06T12:43:48.187Z,7.00
2024-01-06T12:48:53.096Z,6.50
2024-01-06T12:53:56.772Z,8.00
2024-01-06T12:59:01.500Z,7.50
2024-01-06T13:04:07.239Z,6.00
2024-01-06T13:09:13.985Z,7.00
2024-01-06T13:14:17.047Z,6.00
2024-01-06T13:19:22.561Z,6.00
2024-01-06T13:24:25.559Z,6.50
2024-01-06T13:29:28.960Z,5.50
2024-01-06T13:34:34.052Z,6.00
2024-01-06T13:39:37.035Z,6.00
2024-01-06T13:44:40.229Z,5.75
2024-01-06T13:49:44.645Z,6.00
2024-01-06T13:54:48.525Z,4.00
2024-01-06T13:59:51.497Z,6.00
2024-01-06T14:04:55.792Z,8.00
2024-01-06T14:09:58.743Z,6.25
2024-01-06T14:15:02.567Z,5.75
2024-01-06T14:20:10.375Z,5.00
2024-01-06T14:25:14.262Z,5.75
2024-01-06T14:30:17.575Z,6.25
2024-01-06T14:35:22.441Z,5.25
2024-01-06T14:40:25.652Z,6.00
2024-01-06T14:45:28.473Z,4.75
2024-01-06T14:50:32.671Z,5.00
2024-01-06T14:55:35.484Z,4.50
2024-01-06T15:00:38.623Z,6.00
2024-01-06T15:05:42.983Z,5.00
2024-01-06T15:10:46.228Z,6.00
2024-01-06T15:15:52.617Z,5.75
2024-01-06T15:20:58.199Z,4.50
2024-01-06T15:26:04.612Z,5.25
2024-01-06T15:31:08.446Z,6.00
2024-01-06T15:36:12.863Z,5.00
2024-01-06T15:41:15.888Z,5.00
2024-01-06T15:46:19.336Z,5.25
2024-01-06T15:51:24.444Z,4.25
2024-01-06T15:56:27.736Z,4.50
2024-01-06T16:01:30.540Z,6.00
2024-01-06T16:06:36.774Z,5.25
2024-01-06T16:11:41.163Z,5.00
2024-01-06T16:16:44.090Z,4.00
2024-01-06T16:21:52.650Z,4.00
2024-01-06T16:26:57.640Z,6.00
2024-01-06T16:32:00.637Z,5.25
2024-01-06T16:37:05.309Z,5.00
2024-01-06T16:42:08.691Z,5.00
2024-01-06T16:47:11.633Z,5.25
2024-01-06T16:52:16.111Z,5.00
2024-01-06T16:57:20.908Z,6.00
2024-01-06T17:02:23.944Z,5.00
2024-01-06T17:07:28.346Z,5.00
2024-01-06T17:12:31.290Z,6.00
2024-01-06T17:17:34.239Z,4.00
2024-01-06T17:22:38.780Z,5.67
2024-01-06T17:27:42.667Z,5.00
2024-01-06T17:32:45.563Z,5.50
2024-01-06T17:37:50.194Z,5.50
2024-01-06T17:42:53.101Z,5.00
2024-01-06T17:47:56.093Z,4.75
2024-01-06T17:53:00.299Z,5.00
2024-01-06T17:58:04.011Z,5.00
2024-01-06T18:03:07.390Z,6.75
2024-01-06T18:08:11.608Z,5.25
2024-01-06T18:13:14.553Z,6.25
2024-01-06T18:18:17.609Z,5.75
2024-01-06T18:23:22.112Z,5.00
2024-01-06T18:28:25.315Z,5.75
2024-01-06T18:33:28.463Z,5.75
2024-01-06T18:38:32.866Z,5.00
2024-01-06T18:43:35.875Z,4.50
2024-01-06T18:48:38.878Z,4.75
2024-01-06T18:53:43.413Z,5.00
2024-01-06T18:58:46.946Z,5.00
2024-01-06T19:03:50.028Z,4.75
2024-01-06T19:08:54.319Z,7.00
2024-01-06T19:13:57.227Z,5.75
2024-01-06T19:19:00.582Z,6.50
2024-01-06T19:24:05.729Z,5.50
2024-01-06T19:29:09.251Z,6.25
2024-01-06T19:34:12.232Z,6.75
2024-01-06T19:39:16.473Z,5.25
2024-01-06T19:44:19.365Z,5.25
2024-01-06T19:49:22.848Z,8.00
2024-01-06T19:54:27.264Z,11.50
2024-01-06T19:59:30.253Z,14.20
2024-01-06T20:04:33.394Z,15.00
2024-01-06T20:09:37.809Z,15.20
2024-01-06T20:14:40.735Z,16.80
2024-01-06T20:19:43.950Z,18.80
2024-01-06T20:24:48.647Z,18.80
2024-01-06T20:29:53.643Z,18.40
2024-01-06T20:34:57.358Z,19.00
2024-01-06T20:40:01.828Z,18.60
2024-01-06T20:45:05.876Z,17.60
2024-01-06T20:50:09.437Z,18.80
2024-01-06T20:55:14.958Z,19.00
2024-01-06T21:00:19.727Z,17.80
2024-01-06T21:05:22.807Z,18.80
2024-01-06T21:10:27.788Z,18.00
2024-01-06T21:15:30.576Z,17.80
2024-01-06T21:20:34.327Z,18.00
2024-01-06T21:25:38.817Z,18.40
2024-01-06T21:30:41.722Z,17.40
2024-01-06T21:35:44.824Z,16.20
2024-01-06T21:40:49.688Z,16.20
2024-01-06T21:45:53.055Z,15.60
2024-01-06T21:50:56.016Z,15.60
2024-01-06T21:56:00.214Z,13.60
2024-01-06T22:01:03.110Z,16.00
2024-01-06T22:06:06.412Z,14.80
2024-01-06T22:11:10.671Z,16.80
2024-01-06T22:16:15.534Z,14.60
2024-01-06T22:21:19.083Z,15.00
2024-01-06T22:26:23.499Z,15.00
2024-01-06T22:31:27.002Z,13.00
2024-01-06T22:36:30.190Z,15.40
2024-01-06T22:41:34.332Z,14.80
2024-01-06T22:46:37.222Z,15.20
2024-01-06T22:51:40.167Z,14.40
2024-01-06T22:56:44.464Z,13.60
2024-01-06T23:01:47.277Z,13.80
2024-01-06T23:06:50.318Z,14.60
2024-01-06T23:11:54.575Z,14.00
2024-01-06T23:16:57.416Z,13.40
2024-01-06T23:22:00.351Z,13.40
2024-01-06T23:27:05.085Z,15.00
2024-01-06T23:32:08.822Z,15.00
2024-01-06T23:37:11.850Z,14.60
2024-01-06T23:42:16.374Z,13.80
2024-01-06T23:47:19.281Z,13.80
2024-01-06T23:52:22.759Z,13.60
2024-01-06T23:57:27.471Z,13.00
